Time;durP1;ratioP1;P1;durP2;ratioP2;P2;SDS_P1;SDS_P2;PMS_P1;PMS_P2;Temp;Humidity;BMP_temperature;BMP_pressure;BME280_temperature;BME280_humidity;BME280_pressure;Samples;Min_cycle;Max_cycle;Signal;HPM_P1;HPM_P2
2023/12/11 00:00:15;;;;;;;46.13;29.98;;;;;;;;;;5022290;28;20459;-81
2023/12/11 00:02:40;;;;;;;34.92;28.02;;;;;;;;;;5022035;28;20033;-77
2023/12/11 00:05:06;;;;;;;57.85;38.58;;;;;;;;;;5022646;28;20453;-77
2023/12/11 00:07:31;;;;;;;32.70;28.15;;;;;;;;;;5009457;28;20053;-76
2023/12/11 00:09:56;;;;;;;94.82;58.75;;;;;;;;;;5012193;28;20026;-75
2023/12/11 00:12:22;;;;;;;93.50;56.63;;;;;;;;;;5022092;28;20040;-76
2023/12/11 00:14:48;;;;;;;127.15;75.43;;;;;;;;;;5021932;28;20459;-75
2023/12/11 00:17:13;;;;;;;154.77;89.30;;;;;;;;;;5021878;28;20100;-77
2023/12/11 00:19:39;;;;;;;49.22;36.63;;;;;;;;;;5022572;28;20104;-75
2023/12/11 00:22:04;;;;;;;30.55;27.15;;;;;;;;;;5021770;28;20453;-76
2023/12/11 00:24:30;;;;;;;24.25;20.67;;;;;;;;;;5022539;28;20096;-77
2023/12/11 00:26:55;;;;;;;84.50;54.05;;;;;;;;;;5022473;28;20026;-76
2023/12/11 00:29:20;;;;;;;24.15;21.38;;;;;;;;;;5009825;28;20096;-75
2023/12/11 00:31:46;;;;;;;25.58;22.48;;;;;;;;;;5004363;28;20029;-75
2023/12/11 00:34:11;;;;;;;69.22;48.45;;;;;;;;;;5012477;28;20036;-75
2023/12/11 00:36:36;;;;;;;31.42;25.98;;;;;;;;;;5021852;28;20083;-77
2023/12/11 00:39:03;;;;;;;28.38;23.45;;;;;;;;;;5021752;28;20333;-77
2023/12/11 00:41:29;;;;;;;35.40;28.75;;;;;;;;;;5021481;28;20036;-78
2023/12/11 00:43:54;;;;;;;38.53;31.63;;;;;;;;;;5022348;28;20030;-77
2023/12/11 00:46:22;;;;;;;29.73;24.75;;;;;;;;;;5022419;28;20040;-76
2023/12/11 00:48:48;;;;;;;26.73;23.92;;;;;;;;;;5010525;28;20033;-76
2023/12/11 00:51:14;;;;;;;32.60;28.08;;;;;;;;;;5019887;28;20025;-76
2023/12/11 00:53:39;;;;;;;52.13;41.75;;;;;;;;;;5021311;28;20344;-76
2023/12/11 00:56:05;;;;;;;56.67;43.25;;;;;;;;;;5020958;28;20131;-76
2023/12/11 00:58:30;;;;;;;29.40;26.27;;;;;;;;;;5018899;28;20025;-76
2023/12/11 01:00:56;;;;;;;27.67;24.55;;;;;;;;;;5014101;28;20356;-76
2023/12/11 01:03:21;;;;;;;36.03;32.03;;;;;;;;;;5025773;28;20364;-76
2023/12/11 01:05:46;;;;;;;37.45;30.50;;;;;;;;;;5012591;28;20037;-76
2023/12/11 01:08:12;;;;;;;31.25;27.27;;;;;;;;;;5028694;28;20046;-75
2023/12/11 01:10:37;;;;;;;25.33;22.73;;;;;;;;;;5029680;28;20447;-77
2023/12/11 01:13:22;;;;;;;31.50;27.80;;;;;;;;;;5026375;28;20029;-77
2023/12/11 01:15:47;;;;;;;40.00;34.08;;;;;;;;;;5014657;28;20915;-77
2023/12/11 01:18:12;;;;;;;32.95;28.80;;;;;;;;;;5021180;28;20974;-77
2023/12/11 01:20:38;;;;;;;34.50;30.83;;;;;;;;;;5027528;28;20025;-77
2023/12/11 01:23:04;;;;;;;37.05;32.63;;;;;;;;;;5028496;28;20183;-77
2023/12/11 01:25:30;;;;;;;29.95;26.75;;;;;;;;;;5017884;28;20044;-76
2023/12/11 01:27:55;;;;;;;30.58;27.38;;;;;;;;;;5026670;28;20332;-77
2023/12/11 01:30:20;;;;;;;38.13;33.75;;;;;;;;;;5027876;28;20188;-78
2023/12/11 01:32:46;;;;;;;34.25;30.35;;;;;;;;;;5028303;28;20064;-77
2023/12/11 01:35:11;;;;;;;47.30;40.40;;;;;;;;;;5027695;28;20029;-78
2023/12/11 01:37:36;;;;;;;50.22;43.03;;;;;;;;;;5015614;28;20026;-76
2023/12/11 01:40:05;;;;;;;39.28;35.08;;;;;;;;;;5027133;28;20108;-77
2023/12/11 01:42:30;;;;;;;34.15;30.35;;;;;;;;;;5027505;28;20408;-77
2023/12/11 01:44:55;;;;;;;25.50;22.75;;;;;;;;;;5000874;28;20025;-77
2023/12/11 01:47:21;;;;;;;23.92;21.45;;;;;;;;;;5025935;28;20025;-77
2023/12/11 01:49:46;;;;;;;27.83;24.55;;;;;;;;;;5027020;28;20025;-76
2023/12/11 01:52:12;;;;;;;66.53;50.63;;;;;;;;;;5015467;28;20033;-76
2023/12/11 01:54:38;;;;;;;42.35;33.95;;;;;;;;;;5027569;28;20037;-75
2023/12/11 01:57:05;;;;;;;74.75;58.15;;;;;;;;;;5028245;28;20048;-75
2023/12/11 01:59:30;;;;;;;57.15;49.65;;;;;;;;;;5027875;28;20527;-77
2023/12/11 02:01:55;;;;;;;66.78;55.53;;;;;;;;;;5027890;28;20044;-77
2023/12/11 02:04:21;;;;;;;68.15;60.83;;;;;;;;;;5027611;28;20044;-78
2023/12/11 02:06:46;;;;;;;39.28;34.35;;;;;;;;;;5027139;28;20095;-77
2023/12/11 02:09:12;;;;;;;39.53;34.67;;;;;;;;;;5028102;28;21073;-74
2023/12/11 02:11:37;;;;;;;39.85;35.55;;;;;;;;;;5027638;28;20101;-77
2023/12/11 02:14:03;;;;;;;38.55;32.45;;;;;;;;;;5026223;28;20025;-77
2023/12/11 02:16:28;;;;;;;55.13;46.42;;;;;;;;;;5012874;28;20128;-76
2023/12/11 02:18:54;;;;;;;32.30;28.80;;;;;;;;;;5011283;28;20025;-76
2023/12/11 02:21:19;;;;;;;36.33;32.17;;;;;;;;;;5024562;28;20033;-77
2023/12/11 02:23:51;;;;;;;36.42;30.38;;;;;;;;;;5023954;28;20037;-77
2023/12/11 02:26:18;;;;;;;30.27;26.25;;;;;;;;;;5013544;28;20459;-78
2023/12/11 02:28:44;;;;;;;28.92;24.98;;;;;;;;;;5017374;28;20029;-77
2023/12/11 02:31:09;;;;;;;29.77;26.58;;;;;;;;;;5019272;28;20048;-78
2023/12/11 02:33:35;;;;;;;31.20;27.27;;;;;;;;;;5024635;28;20064;-77
2023/12/11 02:36:00;;;;;;;29.35;25.83;;;;;;;;;;5024066;28;20021;-77
2023/12/11 02:38:25;;;;;;;32.75;28.20;;;;;;;;;;5021839;28;20574;-78
2023/12/11 02:40:51;;;;;;;28.67;25.42;;;;;;;;;;5014012;28;20095;-77
2023/12/11 02:43:16;;;;;;;28.75;24.27;;;;;;;;;;5023541;28;20029;-76
2023/12/11 02:45:42;;;;;;;29.65;24.98;;;;;;;;;;5023931;28;20072;-76
2023/12/11 02:48:07;;;;;;;34.80;30.80;;;;;;;;;;5014968;28;20029;-77
2023/12/11 02:50:33;;;;;;;26.23;22.27;;;;;;;;;;5021375;28;20044;-77
2023/12/11 02:52:58;;;;;;;35.38;31.70;;;;;;;;;;5024021;28;20441;-78
2023/12/11 02:55:24;;;;;;;31.25;25.10;;;;;;;;;;5024071;28;20036;-77
2023/12/11 02:57:49;;;;;;;24.83;22.23;;;;;;;;;;5023895;28;20013;-77
2023/12/11 03:00:15;;;;;;;24.63;20.33;;;;;;;;;;5023721;28;20040;-78
2023/12/11 03:02:40;;;;;;;25.42;21.13;;;;;;;;;;5015303;28;20025;-77
2023/12/11 03:05:06;;;;;;;23.67;21.05;;;;;;;;;;5019789;28;20037;-76
2023/12/11 03:07:31;;;;;;;17.25;15.45;;;;;;;;;;5023813;28;20186;-76
2023/12/11 03:09:57;;;;;;;22.42;18.73;;;;;;;;;;5023348;28;20771;-76
2023/12/11 03:12:22;;;;;;;19.65;16.88;;;;;;;;;;5023713;28;20037;-78
2023/12/11 03:14:47;;;;;;;26.35;20.33;;;;;;;;;;5023911;28;20452;-77
2023/12/11 03:17:13;;;;;;;25.80;19.25;;;;;;;;;;5004359;28;20337;-77
2023/12/11 03:19:38;;;;;;;31.30;24.50;;;;;;;;;;5023801;28;20172;-78
2023/12/11 03:22:03;;;;;;;30.67;27.15;;;;;;;;;;5023387;28;20025;-76
2023/12/11 03:24:29;;;;;;;25.90;23.20;;;;;;;;;;5023721;28;20029;-76
2023/12/11 03:26:54;;;;;;;23.40;20.90;;;;;;;;;;5012085;28;20025;-75
2023/12/11 03:29:19;;;;;;;23.35;20.50;;;;;;;;;;5020703;28;20030;-77
2023/12/11 03:31:45;;;;;;;28.05;24.70;;;;;;;;;;5020854;28;20026;-76
2023/12/11 03:34:10;;;;;;;23.98;21.38;;;;;;;;;;5007261;28;20044;-78
2023/12/11 03:36:35;;;;;;;25.27;20.55;;;;;;;;;;5022834;28;20078;-76
2023/12/11 03:39:01;;;;;;;26.20;21.48;;;;;;;;;;5022854;28;20025;-76
2023/12/11 03:41:26;;;;;;;25.20;21.58;;;;;;;;;;5023339;28;20102;-78
2023/12/11 03:43:51;;;;;;;22.23;18.55;;;;;;;;;;5010135;28;20026;-77
2023/12/11 03:46:17;;;;;;;23.10;19.23;;;;;;;;;;5023961;28;20352;-78
2023/12/11 03:48:42;;;;;;;19.55;17.35;;;;;;;;;;5023392;28;20021;-78
2023/12/11 03:51:08;;;;;;;26.23;23.20;;;;;;;;;;5023365;28;20440;-78
2023/12/11 03:53:33;;;;;;;21.95;19.50;;;;;;;;;;5021018;28;20041;-78
2023/12/11 03:55:58;;;;;;;21.10;18.65;;;;;;;;;;5016430;28;20025;-78
2023/12/11 03:58:24;;;;;;;21.23;17.38;;;;;;;;;;5009729;28;20025;-76
2023/12/11 04:00:49;;;;;;;19.77;16.98;;;;;;;;;;5007794;28;20029;-75
2023/12/11 04:03:15;;;;;;;19.73;15.82;;;;;;;;;;5009858;28;20033;-76
2023/12/11 04:05:40;;;;;;;20.75;16.42;;;;;;;;;;5021117;28;20040;-78
2023/12/11 04:08:05;;;;;;;19.65;15.55;;;;;;;;;;5010734;28;20045;-77
2023/12/11 04:10:31;;;;;;;18.70;15.45;;;;;;;;;;5021912;28;20079;-77
2023/12/11 04:13:00;;;;;;;73.38;45.35;;;;;;;;;;5022333;28;20037;-77
2023/12/11 04:15:25;;;;;;;58.17;38.13;;;;;;;;;;5013492;28;20073;-75
2023/12/11 04:17:50;;;;;;;64.57;41.42;;;;;;;;;;5004100;28;20044;-76
2023/12/11 04:20:16;;;;;;;82.75;49.97;;;;;;;;;;5022387;28;20061;-77
2023/12/11 04:22:41;;;;;;;47.75;30.35;;;;;;;;;;5014881;28;20025;-78
2023/12/11 04:25:07;;;;;;;52.67;35.45;;;;;;;;;;5015594;28;20428;-77
2023/12/11 04:27:32;;;;;;;43.42;29.50;;;;;;;;;;4994961;28;20061;-76
2023/12/11 04:29:59;;;;;;;23.33;19.20;;;;;;;;;;5009225;28;20025;-75
2023/12/11 04:32:24;;;;;;;33.72;26.23;;;;;;;;;;4999803;28;20148;-75
2023/12/11 04:34:49;;;;;;;32.45;26.60;;;;;;;;;;5006547;28;20128;-77
2023/12/11 04:37:15;;;;;;;23.58;20.23;;;;;;;;;;5005473;28;20048;-77
2023/12/11 04:39:40;;;;;;;25.73;20.52;;;;;;;;;;5001758;28;20037;-77
2023/12/11 04:42:05;;;;;;;26.13;20.70;;;;;;;;;;5006396;28;20083;-75
2023/12/11 04:44:31;;;;;;;23.45;20.80;;;;;;;;;;4999851;28;20445;-76
2023/12/11 04:46:56;;;;;;;32.25;28.65;;;;;;;;;;5006389;28;21309;-76
2023/12/11 04:49:21;;;;;;;41.30;36.80;;;;;;;;;;5017421;28;20033;-76
2023/12/11 04:51:47;;;;;;;20.85;18.27;;;;;;;;;;5008171;28;20318;-77
2023/12/11 04:54:12;;;;;;;21.60;17.73;;;;;;;;;;5022229;28;20087;-77
2023/12/11 04:56:38;;;;;;;21.10;18.23;;;;;;;;;;5021486;28;20039;-76
2023/12/11 04:59:03;;;;;;;23.45;20.48;;;;;;;;;;5014363;28;20029;-75
2023/12/11 05:01:28;;;;;;;17.42;14.88;;;;;;;;;;5001443;28;20124;-78
2023/12/11 05:03:54;;;;;;;23.23;18.60;;;;;;;;;;5014474;28;20044;-77
2023/12/11 05:06:19;;;;;;;21.48;19.13;;;;;;;;;;5021919;28;21057;-76
2023/12/11 05:08:45;;;;;;;23.40;19.67;;;;;;;;;;5021416;28;20055;-76
2023/12/11 05:11:10;;;;;;;18.25;14.40;;;;;;;;;;5020449;28;20036;-75
2023/12/11 05:13:35;;;;;;;23.20;19.05;;;;;;;;;;5021090;28;20041;-76
2023/12/11 05:16:01;;;;;;;17.75;15.95;;;;;;;;;;5021134;28;20029;-79
2023/12/11 05:18:26;;;;;;;28.58;25.50;;;;;;;;;;5021045;28;20026;-76
2023/12/11 05:20:52;;;;;;;27.13;22.65;;;;;;;;;;5006580;28;20033;-79
2023/12/11 05:23:17;;;;;;;25.38;21.00;;;;;;;;;;5020945;28;20033;-78
2023/12/11 05:25:42;;;;;;;337.98;260.80;;;;;;;;;;5020680;28;20110;-77
2023/12/11 05:28:07;;;;;;;91.75;69.30;;;;;;;;;;5021208;28;20071;-78
2023/12/11 05:30:33;;;;;;;43.88;36.65;;;;;;;;;;5020312;28;20010;-79
2023/12/11 05:32:59;;;;;;;39.08;32.83;;;;;;;;;;5021871;28;20471;-78
2023/12/11 05:35:25;;;;;;;33.28;28.52;;;;;;;;;;5021500;28;20113;-77
2023/12/11 05:37:50;;;;;;;29.75;25.45;;;;;;;;;;5021331;28;20421;-78
2023/12/11 05:40:16;;;;;;;42.78;38.17;;;;;;;;;;5021775;28;20109;-77
2023/12/11 05:42:41;;;;;;;38.97;32.97;;;;;;;;;;5021290;28;20033;-79
2023/12/11 05:45:08;;;;;;;53.05;39.95;;;;;;;;;;5020251;28;20029;-76
2023/12/11 05:47:33;;;;;;;49.50;37.80;;;;;;;;;;5007728;28;20105;-78
2023/12/11 05:49:59;;;;;;;29.20;25.38;;;;;;;;;;5021064;28;20109;-80
2023/12/11 05:52:24;;;;;;;37.40;33.78;;;;;;;;;;5023330;28;20029;-80
2023/12/11 05:54:49;;;;;;;40.30;36.45;;;;;;;;;;5025618;28;20459;-76
2023/12/11 05:57:15;;;;;;;43.53;39.03;;;;;;;;;;5024428;28;20409;-76
2023/12/11 05:59:40;;;;;;;39.80;35.85;;;;;;;;;;5024170;28;20041;-78
2023/12/11 06:02:05;;;;;;;48.10;43.38;;;;;;;;;;5024365;28;20087;-79
2023/12/11 06:04:31;;;;;;;44.55;39.75;;;;;;;;;;5024294;28;20029;-75
2023/12/11 06:06:56;;;;;;;53.22;47.90;;;;;;;;;;5024502;28;20480;-78
2023/12/11 06:09:21;;;;;;;45.88;40.83;;;;;;;;;;5024819;28;20029;-77
2023/12/11 06:11:47;;;;;;;72.57;62.10;;;;;;;;;;5025138;28;20028;-78
2023/12/11 06:14:12;;;;;;;86.93;73.85;;;;;;;;;;5024288;28;20060;-78
2023/12/11 06:16:37;;;;;;;82.65;69.30;;;;;;;;;;5016726;28;20036;-77
2023/12/11 06:19:03;;;;;;;47.33;40.97;;;;;;;;;;5008733;28;21217;-78
2023/12/11 06:21:28;;;;;;;31.75;28.08;;;;;;;;;;5008986;28;20406;-79
2023/12/11 06:23:54;;;;;;;36.33;31.42;;;;;;;;;;5009730;28;20061;-77
2023/12/11 06:26:28;;;;;;;22.63;20.33;;;;;;;;;;5009449;28;20052;-78
2023/12/11 06:28:54;;;;;;;22.83;20.52;;;;;;;;;;5024483;28;20108;-81
2023/12/11 06:31:19;;;;;;;23.30;20.13;;;;;;;;;;5020495;28;20033;-76
2023/12/11 06:33:45;;;;;;;23.90;21.27;;;;;;;;;;5018885;28;20037;-74
2023/12/11 06:36:10;;;;;;;18.95;16.95;;;;;;;;;;5013081;28;20109;-76
2023/12/11 06:38:36;;;;;;;19.77;16.83;;;;;;;;;;5011656;28;20480;-76
2023/12/11 06:41:02;;;;;;;35.05;29.58;;;;;;;;;;5012713;28;20037;-77
2023/12/11 06:43:27;;;;;;;23.77;20.40;;;;;;;;;;5024035;28;20068;-76
2023/12/11 06:45:52;;;;;;;22.38;18.80;;;;;;;;;;5023987;28;20111;-76
2023/12/11 06:48:18;;;;;;;30.02;25.48;;;;;;;;;;5023944;28;20036;-81
2023/12/11 06:50:43;;;;;;;26.58;19.80;;;;;;;;;;5023770;28;20025;-81
2023/12/11 06:53:09;;;;;;;26.30;22.25;;;;;;;;;;5023126;28;20112;-82
2023/12/11 06:55:35;;;;;;;25.13;22.42;;;;;;;;;;5022123;28;20330;-78
2023/12/11 06:58:00;;;;;;;23.40;20.95;;;;;;;;;;5023346;28;20041;-76
2023/12/11 07:00:26;;;;;;;44.13;39.13;;;;;;;;;;5023811;28;20029;-78
2023/12/11 07:02:52;;;;;;;79.85;71.15;;;;;;;;;;5022056;28;20161;-75
2023/12/11 07:05:17;;;;;;;76.25;68.15;;;;;;;;;;5021884;28;20216;-78
2023/12/11 07:07:42;;;;;;;55.28;49.30;;;;;;;;;;5022821;28;20049;-76
2023/12/11 07:10:08;;;;;;;99.95;88.97;;;;;;;;;;5023249;28;20109;-76
2023/12/11 07:12:35;;;;;;;78.85;71.43;;;;;;;;;;5023121;28;20033;-76
2023/12/11 07:15:01;;;;;;;121.72;105.85;;;;;;;;;;5022827;28;20036;-75
2023/12/11 07:17:26;;;;;;;80.85;69.63;;;;;;;;;;5022758;28;20021;-78
2023/12/11 07:19:51;;;;;;;53.08;47.38;;;;;;;;;;5023654;28;20032;-77
2023/12/11 07:22:17;;;;;;;337.50;253.77;;;;;;;;;;5023464;28;20326;-76
2023/12/11 07:24:42;;;;;;;238.07;184.10;;;;;;;;;;5022677;28;20308;-77
2023/12/11 07:27:07;;;;;;;199.30;174.65;;;;;;;;;;5023156;28;20068;-77
2023/12/11 07:29:33;;;;;;;121.18;108.32;;;;;;;;;;5021463;28;20040;-76
2023/12/11 07:31:58;;;;;;;61.97;55.25;;;;;;;;;;5022442;28;20029;-77
2023/12/11 07:34:23;;;;;;;109.25;74.97;;;;;;;;;;5022790;28;20435;-78
2023/12/11 07:36:51;;;;;;;138.43;86.60;;;;;;;;;;5022776;28;20079;-76
2023/12/11 07:39:16;;;;;;;156.15;99.32;;;;;;;;;;5022259;28;21252;-77
2023/12/11 07:41:41;;;;;;;210.18;128.75;;;;;;;;;;5021889;28;20021;-78
2023/12/11 07:44:07;;;;;;;336.38;204.57;;;;;;;;;;5022258;28;20033;-78
2023/12/11 07:46:33;;;;;;;247.23;156.43;;;;;;;;;;5022188;28;20091;-75
2023/12/11 07:48:58;;;;;;;321.95;196.98;;;;;;;;;;5023401;28;20033;-75
2023/12/11 07:51:24;;;;;;;235.40;145.00;;;;;;;;;;5021788;28;20390;-75
2023/12/11 07:53:50;;;;;;;105.45;73.85;;;;;;;;;;5023203;28;20476;-76
2023/12/11 07:56:22;;;;;;;62.58;51.53;;;;;;;;;;5022642;28;20025;-78
2023/12/11 07:58:47;;;;;;;56.47;48.13;;;;;;;;;;5022731;28;20036;-78
2023/12/11 08:01:13;;;;;;;175.35;122.25;;;;;;;;;;5023287;28;20026;-76
2023/12/11 08:03:38;;;;;;;45.58;34.92;;;;;;;;;;5022462;28;20160;-76
2023/12/11 08:06:04;;;;;;;34.63;29.60;;;;;;;;;;5021996;28;20404;-77
2023/12/11 08:08:29;;;;;;;31.85;26.25;;;;;;;;;;5020599;28;20063;-76
2023/12/11 08:10:54;;;;;;;30.20;23.20;;;;;;;;;;5021961;28;20032;-79
2023/12/11 08:13:20;;;;;;;40.72;32.38;;;;;;;;;;5021722;28;20433;-76
2023/12/11 08:15:45;;;;;;;36.50;28.95;;;;;;;;;;5021791;28;20044;-78
2023/12/11 08:18:10;;;;;;;33.97;26.83;;;;;;;;;;5022670;28;20089;-75
2023/12/11 08:20:36;;;;;;;32.58;24.23;;;;;;;;;;5022522;28;20041;-81
2023/12/11 08:23:01;;;;;;;38.42;31.38;;;;;;;;;;5021637;28;20412;-76
2023/12/11 08:25:27;;;;;;;41.85;33.60;;;;;;;;;;5021735;28;20116;-77
2023/12/11 08:27:52;;;;;;;37.47;30.98;;;;;;;;;;5022313;28;20033;-75
2023/12/11 08:30:17;;;;;;;36.22;29.42;;;;;;;;;;5022674;28;20032;-76
2023/12/11 08:32:43;;;;;;;34.13;25.85;;;;;;;;;;5022154;28;20033;-76
2023/12/11 08:35:08;;;;;;;37.00;29.20;;;;;;;;;;5021148;28;20036;-76
2023/12/11 08:37:34;;;;;;;28.05;22.42;;;;;;;;;;5022222;28;20116;-75
2023/12/11 08:40:00;;;;;;;26.42;19.23;;;;;;;;;;5021947;28;20344;-78
2023/12/11 08:42:25;;;;;;;24.20;20.15;;;;;;;;;;5021976;28;20400;-79
2023/12/11 08:44:50;;;;;;;37.03;29.25;;;;;;;;;;5021359;28;20033;-75
2023/12/11 08:47:16;;;;;;;30.77;24.42;;;;;;;;;;5022026;28;20033;-80
2023/12/11 08:49:42;;;;;;;29.55;24.42;;;;;;;;;;5021538;28;20033;-77
2023/12/11 08:52:08;;;;;;;31.10;23.80;;;;;;;;;;5022143;28;20037;-74
2023/12/11 08:54:33;;;;;;;41.80;31.75;;;;;;;;;;5019886;28;20034;-75
2023/12/11 08:56:58;;;;;;;33.53;27.20;;;;;;;;;;5021859;28;20105;-74
2023/12/11 08:59:24;;;;;;;33.70;25.70;;;;;;;;;;5021807;28;20032;-75
2023/12/11 09:01:49;;;;;;;30.50;21.05;;;;;;;;;;5020862;28;20133;-77
2023/12/11 09:04:14;;;;;;;39.05;30.08;;;;;;;;;;5020732;28;20029;-75
2023/12/11 09:06:40;;;;;;;48.60;35.50;;;;;;;;;;5021209;28;20084;-78
2023/12/11 09:09:05;;;;;;;66.28;43.13;;;;;;;;;;5021191;28;20515;-77
2023/12/11 09:11:31;;;;;;;37.45;31.20;;;;;;;;;;5021999;28;20056;-75
2023/12/11 09:13:56;;;;;;;47.25;34.92;;;;;;;;;;5022371;28;20041;-77
2023/12/11 09:16:21;;;;;;;32.55;27.05;;;;;;;;;;5021982;28;20328;-75
2023/12/11 09:18:47;;;;;;;22.42;19.20;;;;;;;;;;5021848;28;20061;-74
2023/12/11 09:21:12;;;;;;;13.63;11.00;;;;;;;;;;5021644;28;20021;-75
2023/12/11 09:23:37;;;;;;;32.00;21.73;;;;;;;;;;5020853;28;20453;-75
2023/12/11 09:26:03;;;;;;;22.67;15.65;;;;;;;;;;5024129;28;20091;-78
2023/12/11 09:28:28;;;;;;;28.25;19.23;;;;;;;;;;5025451;28;20047;-79
2023/12/11 09:30:54;;;;;;;25.00;19.00;;;;;;;;;;5025080;28;20160;-75
2023/12/11 09:33:19;;;;;;;153.75;91.50;;;;;;;;;;5025812;28;20032;-76
2023/12/11 09:35:45;;;;;;;62.15;46.22;;;;;;;;;;5023870;28;20033;-77
2023/12/11 09:38:11;;;;;;;61.78;43.38;;;;;;;;;;5026233;28;20065;-74
2023/12/11 09:40:37;;;;;;;25.20;17.52;;;;;;;;;;5025714;28;20036;-77
2023/12/11 09:43:02;;;;;;;115.38;64.32;;;;;;;;;;5025299;28;20079;-75
2023/12/11 09:45:28;;;;;;;76.18;49.25;;;;;;;;;;5024499;28;20033;-80
2023/12/11 09:47:54;;;;;;;31.88;24.85;;;;;;;;;;5025380;28;20421;-76
2023/12/11 09:50:20;;;;;;;31.67;25.83;;;;;;;;;;5025250;28;20037;-75
2023/12/11 09:52:45;;;;;;;29.63;23.95;;;;;;;;;;5024807;28;20033;-76
2023/12/11 09:55:11;;;;;;;44.10;33.90;;;;;;;;;;5021769;28;20080;-75
2023/12/11 09:57:44;;;;;;;24.48;20.33;;;;;;;;;;5015107;28;20369;-74
2023/12/11 10:00:11;;;;;;;42.40;35.15;;;;;;;;;;5024501;28;20658;-75
2023/12/11 10:02:38;;;;;;;33.42;25.55;;;;;;;;;;5024194;28;20037;-75
2023/12/11 10:05:07;;;;;;;15.45;12.48;;;;;;;;;;5024559;28;20108;-75
2023/12/11 10:07:33;;;;;;;22.92;19.00;;;;;;;;;;5025106;28;20453;-75
2023/12/11 10:09:59;;;;;;;26.92;22.58;;;;;;;;;;5024253;28;20092;-74
2023/12/11 10:12:25;;;;;;;24.75;22.33;;;;;;;;;;5025931;28;20049;-79
2023/12/11 10:15:01;;;;;;;30.20;25.90;;;;;;;;;;5024698;28;20512;-77
2023/12/11 10:17:26;;;;;;;51.60;37.53;;;;;;;;;;5024177;28;20034;-79
2023/12/11 10:19:52;;;;;;;84.75;53.65;;;;;;;;;;5024668;28;20021;-80
2023/12/11 10:22:27;;;;;;;110.97;69.75;;;;;;;;;;5024486;28;20038;-76
2023/12/11 10:24:53;;;;;;;71.78;51.72;;;;;;;;;;5024596;28;20475;-75
2023/12/11 10:27:21;;;;;;;103.45;75.97;;;;;;;;;;5024241;28;20026;-76
2023/12/11 10:29:47;;;;;;;105.25;73.38;;;;;;;;;;5024794;28;20037;-75
2023/12/11 10:32:13;;;;;;;45.30;35.63;;;;;;;;;;5024612;28;20411;-77
2023/12/11 10:34:45;;;;;;;79.82;55.25;;;;;;;;;;5026378;28;20108;-79
2023/12/11 10:37:13;;;;;;;86.07;65.22;;;;;;;;;;5023894;28;20033;-77
2023/12/11 10:39:38;;;;;;;53.38;39.78;;;;;;;;;;5023232;28;20032;-75
2023/12/11 10:42:14;;;;;;;51.97;36.38;;;;;;;;;;5024215;28;20432;-75
2023/12/11 10:44:40;;;;;;;23.73;17.40;;;;;;;;;;5024635;28;20516;-74
2023/12/11 10:47:05;;;;;;;56.22;41.50;;;;;;;;;;5024768;28;20104;-77
2023/12/11 10:49:31;;;;;;;101.55;73.13;;;;;;;;;;5024319;28;20116;-79
2023/12/11 10:51:56;;;;;;;17.52;13.65;;;;;;;;;;5023958;28;20033;-79
2023/12/11 10:54:22;;;;;;;19.90;16.20;;;;;;;;;;5024012;28;20056;-79
2023/12/11 10:56:48;;;;;;;14.00;10.68;;;;;;;;;;5024335;28;20870;-81
2023/12/11 10:59:14;;;;;;;19.35;13.70;;;;;;;;;;5022706;28;20792;-76
2023/12/11 11:01:41;;;;;;;24.52;19.02;;;;;;;;;;5024487;28;20033;-74
2023/12/11 11:04:07;;;;;;;22.10;16.08;;;;;;;;;;5023885;28;20036;-78
2023/12/11 11:06:35;;;;;;;37.72;27.75;;;;;;;;;;5019695;28;20057;-74
2023/12/11 11:09:12;;;;;;;18.85;14.43;;;;;;;;;;5024715;28;20488;-75
2023/12/11 11:11:48;;;;;;;38.22;29.30;;;;;;;;;;5024113;28;20030;-77
2023/12/11 11:14:32;;;;;;;63.38;48.88;;;;;;;;;;5023858;28;20059;-75
2023/12/11 11:16:58;;;;;;;56.30;41.60;;;;;;;;;;5022809;28;20449;-75
2023/12/11 11:19:24;;;;;;;19.70;15.95;;;;;;;;;;5024181;28;20013;-80
2023/12/11 11:22:04;;;;;;;20.95;15.55;;;;;;;;;;5023573;28;20037;-76
2023/12/11 11:24:38;;;;;;;21.27;16.73;;;;;;;;;;5023643;28;20057;-74
2023/12/11 11:27:24;;;;;;;40.15;27.60;;;;;;;;;;5023645;28;20445;-74
2023/12/11 11:29:49;;;;;;;100.43;69.35;;;;;;;;;;5023065;28;20037;-79
2023/12/11 11:32:15;;;;;;;69.72;48.72;;;;;;;;;;5024186;28;20040;-75
2023/12/11 11:34:40;;;;;;;88.00;69.28;;;;;;;;;;5023498;28;20088;-75
2023/12/11 11:37:17;;;;;;;65.15;51.92;;;;;;;;;;5023324;28;20083;-78
2023/12/11 11:40:02;;;;;;;86.70;63.22;;;;;;;;;;5022699;28;20030;-79
2023/12/11 11:42:34;;;;;;;34.75;29.70;;;;;;;;;;5021784;28;20413;-75
2023/12/11 11:45:00;;;;;;;26.35;23.55;;;;;;;;;;5023820;28;20017;-74
2023/12/11 11:47:26;;;;;;;48.95;40.90;;;;;;;;;;5023707;28;20029;-80
2023/12/11 11:49:53;;;;;;;38.83;33.10;;;;;;;;;;5022485;28;20110;-77
2023/12/11 11:52:28;;;;;;;24.00;18.90;;;;;;;;;;5023558;28;20116;-76
2023/12/11 11:55:03;;;;;;;80.65;57.70;;;;;;;;;;5021647;28;20067;-75
2023/12/11 11:57:28;;;;;;;56.95;44.22;;;;;;;;;;5022098;28;20028;-76
2023/12/11 11:59:55;;;;;;;44.85;36.17;;;;;;;;;;5022993;28;20029;-79
2023/12/11 12:02:21;;;;;;;31.02;26.27;;;;;;;;;;5022098;28;20037;-77
2023/12/11 12:04:47;;;;;;;32.95;26.15;;;;;;;;;;5021834;28;20029;-75
2023/12/11 12:07:12;;;;;;;39.50;31.52;;;;;;;;;;5023183;28;20123;-77
2023/12/11 12:09:38;;;;;;;29.45;23.58;;;;;;;;;;5022858;28;20033;-75
2023/12/11 12:12:04;;;;;;;26.85;21.88;;;;;;;;;;5022728;28;20018;-81
2023/12/11 12:14:29;;;;;;;17.90;14.48;;;;;;;;;;5022417;28;20125;-79
2023/12/11 12:16:55;;;;;;;21.10;16.50;;;;;;;;;;5022708;28;20017;-80
2023/12/11 12:19:33;;;;;;;26.90;22.45;;;;;;;;;;5021380;28;20037;-76
2023/12/11 12:21:58;;;;;;;32.88;26.70;;;;;;;;;;5022742;28;20448;-76
2023/12/11 12:24:27;;;;;;;31.30;23.95;;;;;;;;;;5022307;28;20029;-74
2023/12/11 12:27:03;;;;;;;20.00;17.90;;;;;;;;;;5022307;28;20037;-75
2023/12/11 12:29:30;;;;;;;11.05;9.75;;;;;;;;;;5021732;28;20345;-77
2023/12/11 12:31:55;;;;;;;21.30;18.15;;;;;;;;;;5021703;28;20026;-75
2023/12/11 12:34:23;;;;;;;17.65;15.50;;;;;;;;;;5021968;28;20094;-76
2023/12/11 12:36:48;;;;;;;27.25;22.15;;;;;;;;;;5022543;28;20037;-79
2023/12/11 12:39:17;;;;;;;18.88;14.27;;;;;;;;;;5022189;28;20018;-81
2023/12/11 12:41:43;;;;;;;28.67;23.13;;;;;;;;;;5021218;28;20029;-75
2023/12/11 12:44:08;;;;;;;12.15;10.95;;;;;;;;;;5022334;28;20044;-76
2023/12/11 12:46:38;;;;;;;37.05;25.98;;;;;;;;;;5022064;28;20433;-76
2023/12/11 12:49:10;;;;;;;37.80;27.85;;;;;;;;;;5022259;28;20463;-78
2023/12/11 12:51:48;;;;;;;72.43;54.42;;;;;;;;;;5021311;28;20068;-77
2023/12/11 12:54:14;;;;;;;16.75;14.05;;;;;;;;;;5021614;28;20364;-80
2023/12/11 12:56:41;;;;;;;14.95;12.15;;;;;;;;;;5022191;28;20037;-76
2023/12/11 12:59:06;;;;;;;12.05;8.70;;;;;;;;;;5021510;28;20128;-78
2023/12/11 13:01:40;;;;;;;11.77;9.30;;;;;;;;;;5005519;28;20053;-79
2023/12/11 13:04:08;;;;;;;12.23;10.02;;;;;;;;;;5022109;28;20037;-78
2023/12/11 13:06:34;;;;;;;17.37;10.53;;;;;;;;;;5022162;28;20098;-79
2023/12/11 13:09:00;;;;;;;10.05;8.70;;;;;;;;;;5010082;28;20056;-76
2023/12/11 13:11:45;;;;;;;16.30;12.98;;;;;;;;;;5005064;28;20167;-78
2023/12/11 13:14:13;;;;;;;18.67;13.75;;;;;;;;;;5005902;28;20044;-77
2023/12/11 13:16:39;;;;;;;19.25;15.90;;;;;;;;;;5020631;28;20061;-77
2023/12/11 13:19:05;;;;;;;31.00;22.52;;;;;;;;;;5022179;28;20052;-79
2023/12/11 13:21:30;;;;;;;44.42;30.75;;;;;;;;;;5021186;28;20421;-78
2023/12/11 13:23:55;;;;;;;45.58;37.30;;;;;;;;;;5013855;28;20046;-78
2023/12/11 13:26:21;;;;;;;40.80;30.35;;;;;;;;;;5007733;28;20021;-77
2023/12/11 13:28:46;;;;;;;30.00;21.13;;;;;;;;;;5005281;28;20030;-80
2023/12/11 13:31:11;;;;;;;36.85;28.55;;;;;;;;;;5016358;28;20021;-80
2023/12/11 13:33:37;;;;;;;48.78;36.83;;;;;;;;;;5011615;28;20041;-78
2023/12/11 13:36:02;;;;;;;37.47;30.88;;;;;;;;;;5012648;28;20475;-77
2023/12/11 13:38:28;;;;;;;24.27;18.60;;;;;;;;;;5007743;28;20025;-80
2023/12/11 13:40:53;;;;;;;31.42;25.33;;;;;;;;;;5000902;28;20037;-76
2023/12/11 13:43:18;;;;;;;36.70;29.65;;;;;;;;;;5016549;28;20099;-74
2023/12/11 13:45:44;;;;;;;39.50;31.85;;;;;;;;;;5018917;28;20013;-75
2023/12/11 13:48:09;;;;;;;19.67;15.43;;;;;;;;;;5008133;28;20021;-75
2023/12/11 13:50:35;;;;;;;25.08;21.58;;;;;;;;;;5007409;28;20448;-76
2023/12/11 13:53:01;;;;;;;21.20;18.42;;;;;;;;;;5019189;28;20033;-76
2023/12/11 13:55:26;;;;;;;29.40;23.75;;;;;;;;;;5015052;28;20026;-74
2023/12/11 13:57:51;;;;;;;30.83;23.70;;;;;;;;;;4990565;28;20025;-73
2023/12/11 14:00:17;;;;;;;47.20;40.13;;;;;;;;;;5008280;28;20148;-74
2023/12/11 14:02:45;;;;;;;67.13;52.15;;;;;;;;;;5005297;28;20033;-73
2023/12/11 14:05:12;;;;;;;61.90;47.25;;;;;;;;;;5004990;28;20025;-73
2023/12/11 14:07:37;;;;;;;114.47;86.95;;;;;;;;;;5008906;28;20050;-74
2023/12/11 14:10:05;;;;;;;60.20;47.63;;;;;;;;;;5009013;28;20040;-75